createdAt,value
2018-06-09T00:01:12.007Z,18.98
2018-06-09T00:03:39.130Z,18.95
2018-06-09T00:06:06.347Z,18.90
2018-06-09T00:08:33.469Z,18.83
2018-06-09T00:11:00.605Z,18.80
2018-06-09T00:13:27.730Z,18.77
2018-06-09T00:15:54.828Z,18.74
2018-06-09T00:18:21.952Z,18.73
2018-06-09T00:20:49.119Z,18.68
2018-06-09T00:23:16.220Z,18.66
2018-06-09T00:25:43.368Z,18.62
2018-06-09T00:28:10.537Z,18.55
2018-06-09T00:30:37.642Z,18.54
2018-06-09T00:33:04.755Z,18.49
2018-06-09T00:35:31.983Z,18.47
2018-06-09T00:37:59.083Z,18.45
2018-06-09T00:40:26.192Z,18.40
2018-06-09T00:42:54.315Z,18.35
2018-06-09T00:45:21.388Z,18.30
2018-06-09T00:47:48.463Z,18.25
2018-06-09T00:50:15.582Z,18.20
2018-06-09T00:52:42.796Z,18.18
2018-06-09T00:55:09.908Z,18.13
2018-06-09T00:57:37.082Z,18.08
2018-06-09T01:00:04.246Z,18.06
2018-06-09T01:02:31.364Z,18.02
2018-06-09T01:04:58.502Z,17.97
2018-06-09T01:07:25.631Z,17.94
2018-06-09T01:09:52.822Z,17.93
2018-06-09T01:12:20.361Z,17.89
2018-06-09T01:14:47.465Z,17.85
2018-06-09T01:17:14.544Z,17.80
2018-06-09T01:19:41.756Z,17.80
2018-06-09T01:22:08.976Z,17.78
2018-06-09T01:24:36.071Z,17.76
2018-06-09T01:27:03.263Z,17.75
2018-06-09T01:29:30.364Z,17.73
2018-06-09T01:31:57.442Z,17.74
2018-06-09T01:34:24.617Z,17.71
2018-06-09T01:36:51.754Z,17.72
2018-06-09T01:39:18.843Z,17.72
2018-06-09T01:41:46.168Z,17.66
2018-06-09T01:44:13.373Z,17.67
2018-06-09T01:46:40.503Z,17.63
2018-06-09T01:49:07.689Z,17.61
2018-06-09T01:51:34.828Z,17.61
2018-06-09T01:54:01.992Z,17.56
2018-06-09T01:56:29.116Z,17.56
2018-06-09T01:58:56.242Z,17.55
2018-06-09T02:01:23.344Z,17.53
2018-06-09T02:03:50.509Z,17.51
2018-06-09T02:06:17.622Z,17.49
2018-06-09T02:08:44.866Z,17.47
2018-06-09T02:11:12.028Z,17.42
2018-06-09T02:13:39.152Z,17.42
2018-06-09T02:16:06.249Z,17.39
2018-06-09T02:18:33.460Z,17.38
2018-06-09T02:21:00.595Z,17.37
2018-06-09T02:23:27.672Z,17.40
2018-06-09T02:25:54.813Z,17.35
2018-06-09T02:28:21.932Z,17.32
2018-06-09T02:30:49.032Z,17.30
2018-06-09T02:33:16.157Z,17.30
2018-06-09T02:35:43.257Z,17.30
2018-06-09T02:38:10.354Z,17.30
2018-06-09T02:40:37.506Z,17.31
2018-06-09T02:43:04.868Z,17.29
2018-06-09T02:45:32.185Z,17.27
2018-06-09T02:47:59.363Z,17.23
2018-06-09T02:50:26.472Z,17.21
2018-06-09T02:52:53.599Z,17.25
2018-06-09T02:55:21.120Z,17.23
2018-06-09T02:57:48.242Z,17.21
2018-06-09T03:00:15.320Z,17.19
2018-06-09T03:02:42.482Z,17.19
2018-06-09T03:05:09.585Z,17.20
2018-06-09T03:07:36.699Z,17.22
2018-06-09T03:10:03.949Z,17.22
2018-06-09T03:12:31.063Z,17.25
2018-06-09T03:14:58.110Z,17.27
2018-06-09T03:17:25.312Z,17.27
2018-06-09T03:19:52.451Z,17.29
2018-06-09T03:22:19.548Z,17.29
2018-06-09T03:24:46.722Z,17.31
2018-06-09T03:27:13.838Z,17.32
2018-06-09T03:29:40.925Z,17.35
2018-06-09T03:32:08.073Z,17.41
2018-06-09T03:34:35.201Z,17.46
2018-06-09T03:37:02.299Z,17.48
2018-06-09T03:39:29.415Z,17.52
2018-06-09T03:41:56.527Z,17.61
2018-06-09T03:44:23.608Z,17.60
2018-06-09T03:46:50.761Z,17.65
2018-06-09T03:49:17.845Z,17.66
2018-06-09T03:51:44.935Z,17.69
2018-06-09T03:54:12.087Z,17.72
2018-06-09T03:56:39.579Z,17.78
2018-06-09T03:59:06.694Z,17.77
2018-06-09T04:01:33.891Z,17.83
2018-06-09T04:04:01.743Z,17.82
2018-06-09T04:06:28.836Z,17.86
2018-06-09T04:08:56.021Z,17.84
2018-06-09T04:11:23.095Z,17.86
2018-06-09T04:13:50.188Z,17.94
2018-06-09T04:16:17.303Z,17.93
2018-06-09T04:18:44.411Z,17.98
2018-06-09T04:21:11.736Z,18.07
2018-06-09T04:23:38.890Z,18.10
2018-06-09T04:26:05.993Z,18.13
2018-06-09T04:28:33.138Z,18.16
2018-06-09T04:31:00.417Z,18.22
2018-06-09T04:33:27.551Z,18.29
2018-06-09T04:35:54.669Z,18.31
2018-06-09T04:38:21.835Z,18.36
2018-06-09T04:40:48.947Z,18.42
2018-06-09T04:43:16.047Z,18.62
2018-06-09T04:45:43.210Z,18.84
2018-06-09T04:48:10.704Z,19.03
2018-06-09T04:50:37.833Z,19.05
2018-06-09T04:53:05.062Z,19.07
2018-06-09T04:55:32.200Z,19.09
2018-06-09T04:57:59.422Z,19.13
2018-06-09T05:00:26.576Z,19.22
2018-06-09T05:02:53.691Z,19.33
2018-06-09T05:05:20.895Z,19.38
2018-06-09T05:07:48.081Z,19.53
2018-06-09T05:10:15.190Z,19.65
2018-06-09T05:12:42.357Z,19.79
2018-06-09T05:15:09.786Z,19.89
2018-06-09T05:17:36.888Z,20.04
2018-06-09T05:20:04.032Z,20.11
2018-06-09T05:22:31.222Z,20.26
2018-06-09T05:24:58.363Z,20.33
2018-06-09T05:27:25.618Z,20.44
2018-06-09T05:29:52.791Z,20.74
2018-06-09T05:32:19.944Z,21.08
2018-06-09T05:34:47.111Z,21.26
2018-06-09T05:37:14.284Z,21.50
2018-06-09T05:39:41.384Z,21.63
2018-06-09T05:42:08.553Z,21.80
2018-06-09T05:44:35.777Z,21.88
2018-06-09T05:47:03.600Z,21.97
2018-06-09T05:49:30.715Z,22.02
2018-06-09T05:51:57.875Z,22.04
2018-06-09T05:54:25.104Z,22.12
2018-06-09T05:56:52.267Z,22.26
2018-06-09T05:59:19.488Z,22.27
2018-06-09T06:01:46.683Z,22.28
2018-06-09T06:04:13.823Z,22.39
2018-06-09T06:06:41.477Z,22.44
2018-06-09T06:09:08.768Z,22.50
2018-06-09T06:11:35.891Z,22.61
2018-06-09T06:14:04.265Z,22.71
2018-06-09T06:16:31.712Z,22.82
2018-06-09T06:18:58.852Z,22.86
2018-06-09T06:21:26.017Z,22.97
2018-06-09T06:23:53.235Z,22.91
2018-06-09T06:26:20.721Z,23.02
2018-06-09T06:28:48.194Z,23.03
2018-06-09T06:31:15.354Z,23.12
2018-06-09T06:33:42.675Z,23.10
2018-06-09T06:36:09.908Z,23.10
2018-06-09T06:38:37.022Z,23.26
2018-06-09T06:41:04.117Z,23.35
2018-06-09T06:43:31.530Z,23.49
2018-06-09T06:45:58.727Z,23.57
2018-06-09T06:48:25.886Z,23.74
2018-06-09T06:50:53.648Z,23.81
2018-06-09T06:53:20.768Z,23.94
2018-06-09T06:55:47.976Z,24.11
2018-06-09T06:58:15.164Z,24.24
2018-06-09T07:00:42.376Z,24.36
2018-06-09T07:03:09.522Z,24.54
2018-06-09T07:05:36.812Z,24.86
2018-06-09T07:08:03.929Z,24.87
2018-06-09T07:10:31.031Z,25.13
2018-06-09T07:12:58.179Z,25.18
2018-06-09T07:15:25.284Z,25.48
2018-06-09T07:17:52.415Z,25.62
2018-06-09T07:20:19.551Z,25.86
2018-06-09T07:22:46.654Z,26.06
2018-06-09T07:25:14.923Z,26.03
2018-06-09T07:27:42.076Z,26.08
2018-06-09T07:30:09.375Z,26.42
2018-06-09T07:32:36.489Z,26.44
2018-06-09T07:35:03.927Z,26.42
2018-06-09T07:37:31.042Z,26.62
2018-06-09T07:39:58.154Z,26.97
2018-06-09T07:42:25.324Z,27.24
2018-06-09T07:44:52.425Z,27.35
2018-06-09T07:47:19.663Z,27.11
2018-06-09T07:49:47.043Z,27.31
2018-06-09T07:52:14.138Z,27.62
2018-06-09T07:54:41.328Z,27.66
2018-06-09T07:57:08.504Z,27.68
2018-06-09T07:59:35.677Z,28.16
2018-06-09T08:02:02.762Z,28.33
2018-06-09T08:04:29.954Z,28.42
2018-06-09T08:06:57.092Z,28.36
2018-06-09T08:09:24.173Z,28.72
2018-06-09T08:11:51.327Z,28.98
2018-06-09T08:14:18.479Z,28.97
2018-06-09T08:16:45.628Z,29.44
2018-06-09T08:19:12.824Z,29.21
2018-06-09T08:21:39.931Z,29.50
2018-06-09T08:24:07.124Z,29.78
2018-06-09T08:26:34.279Z,29.94
2018-06-09T08:29:01.421Z,29.94
2018-06-09T08:31:28.474Z,30.24
2018-06-09T08:33:56.601Z,30.45
2018-06-09T08:36:23.725Z,29.82
2018-06-09T08:38:51.411Z,30.42
2018-06-09T08:41:18.577Z,29.97
2018-06-09T08:43:45.728Z,30.19
2018-06-09T08:46:12.816Z,30.53
2018-06-09T08:48:39.957Z,30.54
2018-06-09T08:51:07.106Z,30.81
2018-06-09T08:53:34.311Z,30.77
2018-06-09T08:56:01.486Z,30.99
2018-06-09T08:58:28.616Z,30.78
2018-06-09T09:00:55.761Z,30.91
2018-06-09T09:03:22.885Z,31.23
2018-06-09T09:05:49.983Z,30.84
2018-06-09T09:08:17.062Z,31.40
2018-06-09T09:10:44.235Z,31.51
2018-06-09T09:13:11.611Z,31.74
2018-06-09T09:15:38.699Z,32.11
2018-06-09T09:18:05.877Z,31.76
2018-06-09T09:20:33.003Z,31.87
2018-06-09T09:23:00.126Z,31.61
2018-06-09T09:25:27.440Z,31.86
2018-06-09T09:27:54.585Z,32.70
2018-06-09T09:30:21.678Z,32.65
2018-06-09T09:32:48.842Z,32.46
2018-06-09T09:35:15.943Z,32.72
2018-06-09T09:37:43.025Z,32.25
2018-06-09T09:40:10.267Z,31.95
2018-06-09T09:42:37.424Z,32.47
2018-06-09T09:45:04.595Z,32.53
2018-06-09T09:47:31.814Z,32.60
2018-06-09T09:49:58.940Z,32.90
2018-06-09T09:52:29.454Z,33.53
2018-06-09T09:54:56.713Z,32.62
2018-06-09T09:57:23.892Z,32.65
2018-06-09T09:59:51.054Z,33.28
2018-06-09T10:02:18.264Z,33.59
2018-06-09T10:04:46.036Z,33.62
2018-06-09T10:07:13.173Z,33.78
2018-06-09T10:09:40.307Z,33.54
2018-06-09T10:12:08.278Z,34.05
2018-06-09T10:14:35.548Z,33.86
2018-06-09T10:17:02.909Z,34.36
2018-06-09T10:19:30.666Z,34.18
2018-06-09T10:21:57.899Z,33.86
2018-06-09T10:24:25.099Z,33.82
2018-06-09T10:26:52.215Z,34.36
2018-06-09T10:29:19.352Z,34.23
2018-06-09T10:31:47.170Z,33.67
2018-06-09T10:34:14.275Z,34.74
2018-06-09T10:36:42.000Z,35.18
2018-06-09T10:39:33.758Z,34.69
2018-06-09T10:42:01.002Z,34.78
2018-06-09T10:44:28.196Z,34.23
2018-06-09T10:46:56.766Z,35.05
2018-06-09T10:49:23.929Z,35.69
2018-06-09T10:51:51.076Z,34.96
2018-06-09T10:54:18.774Z,35.85
2018-06-09T10:56:45.888Z,36.38
2018-06-09T10:59:12.975Z,37.03
2018-06-09T11:01:40.203Z,35.42
2018-06-09T11:04:07.284Z,36.13
2018-06-09T11:06:34.493Z,35.83
2018-06-09T11:09:03.330Z,34.25
2018-06-09T11:11:30.437Z,33.96
2018-06-09T11:13:57.546Z,35.22
2018-06-09T11:16:24.696Z,35.68
2018-06-09T11:18:51.928Z,35.30
2018-06-09T11:21:19.076Z,36.37
2018-06-09T11:23:46.207Z,36.25
2018-06-09T11:26:13.280Z,36.35
2018-06-09T11:28:41.490Z,35.16
2018-06-09T11:31:08.730Z,34.45
2018-06-09T11:33:35.921Z,35.28
2018-06-09T11:36:03.063Z,36.72
2018-06-09T11:38:30.448Z,36.22
2018-06-09T11:40:57.569Z,37.44
2018-06-09T11:43:24.748Z,39.18
2018-06-09T11:45:53.007Z,40.08
2018-06-09T11:48:20.096Z,40.65
2018-06-09T11:50:47.253Z,40.52
2018-06-09T11:53:14.484Z,38.38
2018-06-09T11:55:41.751Z,35.81
2018-06-09T11:58:08.914Z,38.52
2018-06-09T12:00:36.097Z,39.90
2018-06-09T12:03:03.219Z,40.98
2018-06-09T12:05:30.346Z,41.37
2018-06-09T12:07:57.590Z,41.72
2018-06-09T12:10:24.794Z,40.82
2018-06-09T12:12:51.890Z,39.49
2018-06-09T12:15:19.092Z,39.43
2018-06-09T12:17:46.241Z,36.07
2018-06-09T12:20:13.418Z,34.64
2018-06-09T12:22:41.502Z,33.26
2018-06-09T12:25:08.616Z,33.17
2018-06-09T12:27:35.788Z,33.91
2018-06-09T12:30:03.000Z,34.28
2018-06-09T12:32:31.065Z,34.02
2018-06-09T12:34:58.834Z,33.27
2018-06-09T12:37:25.968Z,33.31
2018-06-09T12:39:53.069Z,33.46
2018-06-09T12:42:20.200Z,34.06
2018-06-09T12:44:47.375Z,34.28
2018-06-09T12:47:14.472Z,33.64
2018-06-09T12:49:41.582Z,33.91
2018-06-09T12:52:08.710Z,33.38
2018-06-09T12:54:35.818Z,33.72
2018-06-09T12:57:03.302Z,33.66
2018-06-09T12:59:30.488Z,33.47
2018-06-09T13:01:57.696Z,33.51
2018-06-09T13:04:24.796Z,33.34
2018-06-09T13:06:51.946Z,33.59
2018-06-09T13:09:19.053Z,33.31
2018-06-09T13:11:46.155Z,33.95
2018-06-09T13:14:13.275Z,34.05
2018-06-09T13:16:40.359Z,34.23
2018-06-09T13:19:07.460Z,33.95
2018-06-09T13:21:34.707Z,33.38
2018-06-09T13:24:01.866Z,32.54
2018-06-09T13:26:28.971Z,32.76
2018-06-09T13:28:56.142Z,32.64
2018-06-09T13:31:24.178Z,32.67
2018-06-09T13:33:51.579Z,32.79
2018-06-09T13:36:18.827Z,33.48
2018-06-09T13:38:45.920Z,33.83
2018-06-09T13:41:13.004Z,34.22
2018-06-09T13:43:40.177Z,34.66
2018-06-09T13:46:07.373Z,34.60
2018-06-09T13:48:35.500Z,34.69
2018-06-09T13:51:02.626Z,34.16
2018-06-09T13:53:29.736Z,33.31
2018-06-09T13:55:56.840Z,33.30
2018-06-09T13:58:23.975Z,33.53
2018-06-09T14:00:51.400Z,33.86
2018-06-09T14:03:18.515Z,33.95
2018-06-09T14:05:45.681Z,33.80
2018-06-09T14:08:12.779Z,33.75
2018-06-09T14:10:39.886Z,32.93
2018-06-09T14:34:49.680Z,34.02
2018-06-09T14:37:16.852Z,34.74
2018-06-09T14:39:43.976Z,34.22
2018-06-09T14:42:11.117Z,32.63
2018-06-09T14:44:38.968Z,32.10
2018-06-09T14:47:06.118Z,32.65
2018-06-09T14:49:33.267Z,33.35
2018-06-09T14:52:00.940Z,33.88
2018-06-09T14:54:28.052Z,34.80
2018-06-09T14:56:55.220Z,35.76
2018-06-09T14:59:22.332Z,35.95
2018-06-09T15:01:49.437Z,36.15
2018-06-09T15:04:16.617Z,35.15
2018-06-09T15:06:43.871Z,34.82
2018-06-09T15:09:10.994Z,36.84
2018-06-09T15:11:38.132Z,39.29
2018-06-09T15:14:05.258Z,38.41
2018-06-09T15:16:32.399Z,38.04
2018-06-09T15:18:59.652Z,41.29
2018-06-09T15:21:26.784Z,41.12
2018-06-09T15:23:53.879Z,38.97
2018-06-09T15:26:21.019Z,41.07
2018-06-09T15:28:48.110Z,36.96
2018-06-09T15:31:15.296Z,38.07
2018-06-09T15:33:42.496Z,36.41
2018-06-09T15:36:09.898Z,37.61
2018-06-09T15:38:37.158Z,38.90
2018-06-09T15:41:04.392Z,38.41
2018-06-09T15:43:31.504Z,40.46
2018-06-09T15:45:58.586Z,42.14
2018-06-09T15:48:25.812Z,43.70
2018-06-09T15:50:53.218Z,44.02
2018-06-09T15:53:20.316Z,43.41
2018-06-09T15:55:47.465Z,40.40
2018-06-09T15:58:14.539Z,40.06
2018-06-09T16:00:41.613Z,39.01
2018-06-09T16:03:08.781Z,37.53
2018-06-09T16:05:36.289Z,36.14
2018-06-09T16:08:04.027Z,35.30
2018-06-09T16:10:31.155Z,34.97
2018-06-09T16:12:58.246Z,34.73
2018-06-09T16:15:25.578Z,33.30
2018-06-09T16:17:52.703Z,33.33
2018-06-09T16:20:20.633Z,33.56
2018-06-09T16:22:47.731Z,33.63
2018-06-09T16:25:14.876Z,33.40
2018-06-09T16:27:41.984Z,33.37
2018-06-09T16:30:09.073Z,33.54
2018-06-09T16:32:36.269Z,33.32
2018-06-09T16:35:03.367Z,33.13
2018-06-09T16:37:30.473Z,32.90
2018-06-09T16:39:57.744Z,32.38
2018-06-09T16:42:24.818Z,31.61
2018-06-09T16:44:51.928Z,31.67
2018-06-09T16:47:19.153Z,32.19
2018-06-09T16:49:46.225Z,32.14
2018-06-09T16:52:13.330Z,32.08
2018-06-09T16:54:40.589Z,31.93
2018-06-09T16:57:07.716Z,32.02
2018-06-09T16:59:36.259Z,32.15
2018-06-09T17:02:03.429Z,32.09
2018-06-09T17:04:30.628Z,31.90
2018-06-09T17:06:57.764Z,32.17
2018-06-09T17:09:24.994Z,32.21
2018-06-09T17:11:52.180Z,32.14
2018-06-09T17:14:19.268Z,31.77
2018-06-09T17:16:46.450Z,31.99
2018-06-09T17:19:13.578Z,31.89
2018-06-09T17:21:40.782Z,31.53
2018-06-09T17:24:07.894Z,31.52
2018-06-09T17:26:35.233Z,31.58
2018-06-09T17:29:02.339Z,31.28
2018-06-09T17:31:29.997Z,31.24
2018-06-09T17:33:57.127Z,31.05
2018-06-09T17:36:25.039Z,30.54
2018-06-09T17:38:52.628Z,30.33
2018-06-09T17:41:19.870Z,29.34
2018-06-09T17:43:46.951Z,29.17
2018-06-09T17:46:14.091Z,28.81
2018-06-09T17:48:41.336Z,28.73
2018-06-09T17:51:08.501Z,28.52
2018-06-09T17:53:36.383Z,28.35
2018-06-09T17:56:04.007Z,27.89
2018-06-09T17:58:31.145Z,27.79
2018-06-09T18:00:58.304Z,27.51
2018-06-09T18:03:25.483Z,27.32
2018-06-09T18:05:52.592Z,27.24
2018-06-09T18:08:19.756Z,27.11
2018-06-09T18:10:46.840Z,26.97
2018-06-09T18:13:15.059Z,26.87
2018-06-09T18:15:42.186Z,26.77
2018-06-09T18:18:09.367Z,26.62
2018-06-09T18:20:36.493Z,26.66
2018-06-09T18:23:03.770Z,26.45
2018-06-09T18:25:30.838Z,26.43
2018-06-09T18:27:57.987Z,26.25
2018-06-09T18:30:25.144Z,26.23
2018-06-09T18:32:52.215Z,26.21
2018-06-09T18:35:19.292Z,26.17
2018-06-09T18:37:46.461Z,26.13
2018-06-09T18:40:13.544Z,25.99
2018-06-09T18:42:40.757Z,25.90
2018-06-09T18:45:07.950Z,25.84
2018-06-09T18:47:35.097Z,25.72
2018-06-09T18:50:02.810Z,25.64
2018-06-09T18:52:29.967Z,25.55
2018-06-09T18:54:57.209Z,25.40
2018-06-09T18:57:24.308Z,25.42
2018-06-09T18:59:51.477Z,25.28
2018-06-09T19:02:18.588Z,25.26
2018-06-09T19:04:45.738Z,25.10
2018-06-09T19:07:12.966Z,24.97
2018-06-09T19:09:40.041Z,24.93
2018-06-09T19:12:07.131Z,24.87
2018-06-09T19:14:34.614Z,24.80
2018-06-09T19:17:01.725Z,24.64
2018-06-09T19:19:28.983Z,24.64
2018-06-09T19:21:56.188Z,24.62
2018-06-09T19:24:23.251Z,24.61
2018-06-09T19:26:50.372Z,24.58
2018-06-09T19:29:22.867Z,24.51
2018-06-09T19:31:53.108Z,24.42
2018-06-09T19:34:24.430Z,24.35
2018-06-09T19:36:55.480Z,24.27
2018-06-09T19:39:22.620Z,24.20
2018-06-09T19:41:54.521Z,24.13
2018-06-09T19:44:27.350Z,24.04
2018-06-09T19:46:56.838Z,23.92
2018-06-09T19:49:26.466Z,23.80
2018-06-09T19:51:55.926Z,23.68
2018-06-09T19:54:22.992Z,23.58
2018-06-09T19:56:55.777Z,23.49
2018-06-09T19:59:27.604Z,23.41
2018-06-09T20:01:54.725Z,23.33
2018-06-09T20:04:22.068Z,23.26
2018-06-09T20:06:49.616Z,23.16
2018-06-09T20:09:16.707Z,23.09
2018-06-09T20:11:46.771Z,23.00
2018-06-09T20:14:14.012Z,22.94
2018-06-09T20:16:41.314Z,22.89
2018-06-09T20:19:10.363Z,22.82
2018-06-09T20:21:37.487Z,22.73
2018-06-09T20:24:04.584Z,22.67
2018-06-09T20:26:31.692Z,22.61
2018-06-09T20:28:58.813Z,22.54
2018-06-09T20:31:25.919Z,22.49
2018-06-09T20:33:53.016Z,22.43
2018-06-09T20:36:20.232Z,22.39
2018-06-09T20:38:47.344Z,22.34
2018-06-09T20:41:14.436Z,22.30
2018-06-09T20:43:41.550Z,22.22
2018-06-09T20:46:08.679Z,22.19
2018-06-09T20:48:35.779Z,22.20
2018-06-09T20:51:03.001Z,22.12
2018-06-09T20:53:30.115Z,21.90
2018-06-09T20:55:57.191Z,21.99
2018-06-09T20:58:24.356Z,22.02
2018-06-09T21:00:51.441Z,22.05
2018-06-09T21:03:18.588Z,22.03
2018-06-09T21:05:45.766Z,22.01
2018-06-09T21:08:12.838Z,21.96
2018-06-09T21:10:39.918Z,21.90
2018-06-09T21:13:07.041Z,21.88
2018-06-09T21:15:34.133Z,21.82
2018-06-09T21:18:01.256Z,21.76
2018-06-09T21:20:28.400Z,21.69
2018-06-09T21:22:55.480Z,21.66
2018-06-09T21:25:22.582Z,21.58
2018-06-09T21:27:55.504Z,21.50
2018-06-09T21:30:28.369Z,21.42
2018-06-09T21:33:01.108Z,21.37
2018-06-09T21:35:44.946Z,21.30
2018-06-09T21:38:15.980Z,21.25
2018-06-09T21:40:47.031Z,21.16
2018-06-09T21:43:19.779Z,21.09
2018-06-09T21:45:49.903Z,21.04
2018-06-09T21:48:18.067Z,21.00
2018-06-09T21:50:45.223Z,20.96
2018-06-09T21:53:12.333Z,20.93
2018-06-09T21:55:39.692Z,20.90
2018-06-09T21:58:06.830Z,20.85
2018-06-09T22:00:33.908Z,20.77
2018-06-09T22:03:00.978Z,20.73
2018-06-09T22:05:28.175Z,20.67
2018-06-09T22:07:55.247Z,20.60
2018-06-09T22:10:22.355Z,20.55
2018-06-09T22:12:49.485Z,20.49
2018-06-09T22:15:16.548Z,20.59
2018-06-09T22:17:43.659Z,20.62
2018-06-09T22:20:10.787Z,20.63
2018-06-09T22:22:37.849Z,20.47
2018-06-09T22:25:04.950Z,20.46
2018-06-09T22:27:32.112Z,20.56
2018-06-09T22:29:59.468Z,20.48
2018-06-09T22:32:26.560Z,20.47
2018-06-09T22:34:53.693Z,20.51
2018-06-09T22:37:20.834Z,20.48
2018-06-09T22:39:47.883Z,20.31
2018-06-09T22:42:15.585Z,20.36
2018-06-09T22:44:42.663Z,20.35
2018-06-09T22:47:09.740Z,20.33
2018-06-09T22:49:36.862Z,20.38
2018-06-09T22:52:03.974Z,20.31
2018-06-09T22:54:31.085Z,20.37
2018-06-09T22:56:58.223Z,20.35
2018-06-09T22:59:25.280Z,20.33
2018-06-09T23:01:52.381Z,20.32
2018-06-09T23:04:19.514Z,20.27
2018-06-09T23:06:46.639Z,20.25
2018-06-09T23:09:13.722Z,20.20
2018-06-09T23:11:40.848Z,20.13
2018-06-09T23:14:07.944Z,20.09
2018-06-09T23:16:35.023Z,20.03
2018-06-09T23:19:02.163Z,19.99
2018-06-09T23:21:29.231Z,19.95
2018-06-09T23:23:56.329Z,19.90
2018-06-09T23:26:23.452Z,19.84
2018-06-09T23:28:50.523Z,19.81
2018-06-09T23:31:17.592Z,19.85
2018-06-09T23:33:44.700Z,19.83
2018-06-09T23:36:11.764Z,19.74
2018-06-09T23:38:38.826Z,19.69
2018-06-09T23:41:05.964Z,19.61
2018-06-09T23:43:33.104Z,19.61
2018-06-09T23:46:00.200Z,19.53
2018-06-09T23:48:27.317Z,19.46
2018-06-09T23:50:54.366Z,19.41
2018-06-09T23:53:21.428Z,19.37
2018-06-09T23:55:48.552Z,19.34
2018-06-09T23:58:15.656Z,19.31
